createdAt,value
2018-12-25T00:00:40.847Z,14.50
2018-12-25T00:01:40.872Z,15.30
2018-12-25T00:02:40.894Z,17.00
2018-12-25T00:03:40.918Z,17.70
2018-12-25T00:04:40.942Z,19.90
2018-12-25T00:05:40.965Z,28.20
2018-12-25T00:06:40.987Z,22.90
2018-12-25T00:07:41.014Z,25.80
2018-12-25T00:08:41.036Z,25.70
2018-12-25T00:09:41.058Z,29.00
2018-12-25T00:10:41.083Z,27.50
2018-12-25T00:11:41.107Z,34.00
2018-12-25T00:12:41.131Z,34.40
2018-12-25T00:13:41.153Z,31.50
2018-12-25T00:14:41.178Z,34.20
2018-12-25T00:15:41.280Z,46.20
2018-12-25T00:16:41.226Z,41.50
2018-12-25T00:17:41.248Z,31.80
2018-12-25T00:18:41.271Z,41.60
2018-12-25T00:19:41.295Z,39.20
2018-12-25T00:20:41.323Z,42.70
2018-12-25T00:21:41.343Z,41.10
2018-12-25T00:22:41.366Z,36.80
2018-12-25T00:23:41.390Z,33.20
2018-12-25T00:24:41.414Z,36.50
2018-12-25T00:25:41.437Z,35.20
2018-12-25T00:26:41.461Z,40.40
2018-12-25T00:27:41.485Z,37.50
2018-12-25T00:28:41.509Z,32.50
2018-12-25T00:29:41.532Z,35.70
2018-12-25T00:30:41.556Z,35.80
2018-12-25T00:31:41.584Z,31.10
2018-12-25T00:32:41.604Z,37.20
2018-12-25T00:33:41.628Z,52.40
2018-12-25T00:34:41.677Z,58.70
2018-12-25T00:35:41.725Z,43.30
2018-12-25T00:36:41.698Z,38.40
2018-12-25T00:37:41.723Z,37.30
2018-12-25T00:38:41.746Z,30.60
2018-12-25T00:39:41.770Z,24.10
2018-12-25T00:40:41.795Z,21.30
2018-12-25T00:41:41.817Z,40.90
2018-12-25T00:42:41.842Z,31.00
2018-12-25T00:43:41.865Z,32.50
2018-12-25T00:44:41.890Z,32.90
2018-12-25T00:45:41.914Z,29.50
2018-12-25T00:46:41.936Z,39.80
2018-12-25T00:47:41.962Z,54.30
2018-12-25T00:48:41.987Z,44.60
2018-12-25T00:49:42.009Z,43.70
2018-12-25T00:50:42.032Z,46.50
2018-12-25T00:51:42.062Z,70.90
2018-12-25T00:52:42.082Z,66.50
2018-12-25T00:53:42.105Z,51.00
2018-12-25T00:54:42.135Z,45.00
2018-12-25T00:55:42.154Z,43.60
2018-12-25T00:56:42.177Z,41.30
2018-12-25T00:57:42.202Z,31.90
2018-12-25T00:58:42.225Z,29.10
2018-12-25T00:59:42.251Z,33.10
2018-12-25T01:00:42.274Z,31.50
2018-12-25T01:01:42.297Z,35.20
2018-12-25T01:02:42.371Z,34.00
2018-12-25T01:03:42.345Z,31.30
2018-12-25T01:04:42.371Z,29.00
2018-12-25T01:05:42.392Z,31.00
2018-12-25T01:06:42.417Z,29.70
2018-12-25T01:07:42.444Z,26.10
2018-12-25T01:08:42.464Z,25.00
2018-12-25T01:09:42.489Z,29.90
2018-12-25T01:10:42.514Z,29.60
2018-12-25T01:11:42.538Z,27.10
2018-12-25T01:12:42.562Z,22.50
2018-12-25T01:13:42.585Z,31.20
2018-12-25T01:14:42.610Z,25.30
2018-12-25T01:15:42.634Z,27.90
2018-12-25T01:16:42.658Z,19.90
2018-12-25T01:17:42.685Z,24.70
2018-12-25T01:18:42.706Z,20.10
2018-12-25T01:19:42.730Z,26.70
2018-12-25T01:20:42.754Z,24.50
2018-12-25T01:21:42.778Z,21.90
2018-12-25T01:22:42.803Z,17.30
2018-12-25T01:23:42.827Z,18.10
2018-12-25T01:24:42.851Z,17.40
2018-12-25T01:25:42.874Z,19.60
2018-12-25T01:26:42.896Z,20.20
2018-12-25T01:27:42.928Z,23.90
2018-12-25T01:28:42.948Z,20.90
2018-12-25T01:29:42.969Z,20.20
2018-12-25T01:30:42.995Z,23.50
2018-12-25T01:31:43.021Z,28.10
2018-12-25T01:32:43.045Z,24.20
2018-12-25T01:33:43.066Z,21.60
2018-12-25T01:34:43.092Z,23.50
2018-12-25T01:35:43.115Z,29.70
2018-12-25T01:36:43.138Z,24.90
2018-12-25T01:37:43.164Z,26.40
2018-12-25T01:38:43.189Z,23.10
2018-12-25T01:39:43.211Z,23.70
2018-12-25T01:40:43.236Z,20.80
2018-12-25T01:41:43.259Z,20.90
2018-12-25T01:42:43.283Z,17.90
2018-12-25T01:43:43.307Z,19.00
2018-12-25T01:44:43.385Z,16.00
2018-12-25T01:45:43.355Z,17.50
2018-12-25T01:46:43.381Z,17.40
2018-12-25T01:47:43.405Z,18.50
2018-12-25T01:48:43.428Z,20.20
2018-12-25T01:49:43.455Z,21.10
2018-12-25T01:50:43.479Z,20.70
2018-12-25T01:51:43.500Z,21.70
2018-12-25T01:52:43.524Z,17.50
2018-12-25T01:53:43.549Z,19.00
2018-12-25T01:54:43.571Z,17.00
2018-12-25T01:55:43.597Z,20.70
2018-12-25T01:56:43.620Z,13.70
2018-12-25T01:57:43.644Z,17.00
2018-12-25T01:58:43.668Z,14.80
2018-12-25T01:59:43.692Z,12.90
2018-12-25T02:00:43.715Z,14.00
2018-12-25T02:01:43.739Z,14.20
2018-12-25T02:02:43.765Z,15.20
2018-12-25T02:03:43.790Z,14.00
2018-12-25T02:04:43.812Z,13.10
2018-12-25T02:05:43.835Z,13.50
2018-12-25T02:06:43.859Z,12.10
2018-12-25T02:07:43.883Z,14.40
2018-12-25T02:08:43.908Z,14.30
2018-12-25T02:09:43.931Z,14.70
2018-12-25T02:10:43.955Z,16.50
2018-12-25T02:11:43.980Z,14.40
2018-12-25T02:12:44.003Z,18.00
2018-12-25T02:13:44.028Z,14.30
2018-12-25T02:14:44.051Z,16.60
2018-12-25T02:15:44.076Z,18.40
2018-12-25T02:16:44.100Z,14.60
2018-12-25T02:17:44.122Z,16.00
2018-12-25T02:18:44.147Z,16.40
2018-12-25T02:19:44.172Z,14.30
2018-12-25T02:20:44.196Z,15.30
2018-12-25T02:21:44.218Z,15.30
2018-12-25T02:22:44.242Z,14.60
2018-12-25T02:23:44.268Z,14.70
2018-12-25T02:24:44.291Z,13.80
2018-12-25T02:25:44.315Z,13.00
2018-12-25T02:26:44.339Z,14.80
2018-12-25T02:27:44.363Z,12.80
2018-12-25T02:28:44.388Z,13.60
2018-12-25T02:29:44.409Z,15.70
2018-12-25T02:30:44.438Z,16.50
2018-12-25T02:31:44.460Z,17.30
2018-12-25T02:32:44.483Z,17.20
2018-12-25T02:33:44.509Z,19.50
2018-12-25T02:34:44.532Z,17.30
2018-12-25T02:35:44.556Z,19.00
2018-12-25T02:36:44.580Z,18.10
2018-12-25T02:37:44.602Z,22.20
2018-12-25T02:38:44.625Z,17.20
2018-12-25T02:39:44.652Z,16.00
2018-12-25T02:40:44.676Z,18.50
2018-12-25T02:41:44.698Z,14.60
2018-12-25T02:42:44.720Z,17.10
2018-12-25T02:43:44.747Z,14.40
2018-12-25T02:44:44.770Z,16.90
2018-12-25T02:45:44.793Z,16.60
2018-12-25T02:46:44.830Z,18.90
2018-12-25T02:47:44.842Z,18.80
2018-12-25T02:48:44.879Z,18.40
2018-12-25T02:49:50.177Z,17.10
2018-12-25T02:50:44.911Z,18.60
2018-12-25T02:51:44.936Z,18.10
2018-12-25T02:52:44.960Z,17.40
2018-12-25T02:53:44.984Z,16.60
2018-12-25T02:54:45.007Z,16.50
2018-12-25T02:55:45.034Z,17.30
2018-12-25T02:56:45.055Z,19.10
2018-12-25T02:57:45.079Z,16.70
2018-12-25T02:58:45.102Z,17.30
2018-12-25T02:59:45.125Z,15.70
2018-12-25T03:00:46.635Z,15.40
2018-12-25T03:01:45.174Z,19.50
2018-12-25T03:02:45.199Z,19.10
2018-12-25T03:03:45.221Z,16.50
2018-12-25T03:04:45.244Z,18.10
2018-12-25T03:05:45.519Z,19.20
2018-12-25T03:06:45.292Z,17.80
2018-12-25T03:07:45.313Z,19.10
2018-12-25T03:08:45.341Z,20.20
2018-12-25T03:09:45.361Z,22.30
2018-12-25T03:10:45.384Z,20.40
2018-12-25T03:11:45.409Z,19.30
2018-12-25T03:12:45.432Z,19.70
2018-12-25T03:13:45.454Z,21.10
2018-12-25T03:14:45.478Z,23.10
2018-12-25T03:15:45.503Z,23.10
2018-12-25T03:16:45.538Z,22.00
2018-12-25T03:17:45.548Z,19.40
2018-12-25T03:18:45.573Z,20.20
2018-12-25T03:19:45.597Z,23.70
2018-12-25T03:20:45.619Z,24.10
2018-12-25T03:21:45.642Z,24.50
2018-12-25T03:22:45.665Z,25.30
2018-12-25T03:23:45.692Z,28.70
2018-12-25T03:24:45.719Z,26.00
2018-12-25T03:25:45.735Z,24.80
2018-12-25T03:26:45.760Z,28.90
2018-12-25T03:27:45.781Z,29.40
2018-12-25T03:28:45.804Z,28.20
2018-12-25T03:29:45.828Z,26.00
2018-12-25T03:30:45.853Z,26.60
2018-12-25T03:31:45.893Z,23.90
2018-12-25T03:32:45.900Z,23.60
2018-12-25T03:33:45.933Z,23.60
2018-12-25T03:34:45.945Z,23.00
2018-12-25T03:35:45.968Z,19.60
2018-12-25T03:36:45.991Z,21.00
2018-12-25T03:37:46.017Z,29.50
2018-12-25T03:38:46.042Z,23.00
2018-12-25T03:39:46.069Z,29.00
2018-12-25T03:40:46.084Z,26.30
2018-12-25T03:41:46.109Z,25.60
2018-12-25T03:42:46.131Z,32.20
2018-12-25T03:43:46.155Z,29.20
2018-12-25T03:44:46.176Z,29.00
2018-12-25T03:45:46.200Z,27.50
2018-12-25T03:46:46.223Z,24.00
2018-12-25T03:47:46.247Z,26.40
2018-12-25T03:48:46.274Z,26.90
2018-12-25T03:49:46.291Z,20.80
2018-12-25T03:50:46.315Z,26.00
2018-12-25T03:51:46.338Z,20.60
2018-12-25T03:52:46.362Z,23.90
2018-12-25T03:53:46.386Z,64.30
2018-12-25T03:54:46.407Z,89.40
2018-12-25T03:55:46.432Z,74.10
2018-12-25T03:56:46.454Z,39.70
2018-12-25T03:57:46.475Z,41.80
2018-12-25T03:58:46.634Z,64.70
2018-12-25T03:59:46.523Z,82.90
2018-12-25T04:00:46.545Z,137.70
2018-12-25T04:01:46.572Z,91.50
2018-12-25T04:02:46.592Z,136.90
2018-12-25T04:03:46.617Z,134.80
2018-12-25T04:04:46.641Z,89.40
2018-12-25T04:05:46.675Z,84.00
2018-12-25T04:06:46.685Z,134.30
2018-12-25T04:07:46.711Z,147.00
2018-12-25T04:08:46.732Z,109.50
2018-12-25T04:09:46.769Z,123.50
2018-12-25T04:10:46.793Z,155.50
2018-12-25T04:11:46.801Z,213.30
2018-12-25T04:12:46.824Z,172.40
2018-12-25T04:13:46.847Z,139.60
2018-12-25T04:14:46.872Z,172.50
2018-12-25T04:15:46.893Z,134.80
2018-12-25T04:16:46.920Z,118.40
2018-12-25T04:17:46.940Z,91.00
2018-12-25T04:18:46.963Z,129.10
2018-12-25T04:19:46.989Z,107.00
2018-12-25T04:20:47.010Z,98.80
2018-12-25T04:21:47.032Z,80.50
2018-12-25T04:22:47.057Z,107.40
2018-12-25T04:23:47.085Z,133.30
2018-12-25T04:24:47.103Z,109.90
2018-12-25T04:25:47.126Z,153.80
2018-12-25T04:26:47.239Z,156.70
2018-12-25T04:27:47.174Z,166.70
2018-12-25T04:28:47.195Z,163.10
2018-12-25T04:29:47.220Z,261.60
2018-12-25T04:30:47.244Z,176.50
2018-12-25T04:31:47.272Z,200.80
2018-12-25T04:32:47.289Z,170.50
2018-12-25T04:33:47.311Z,189.20
2018-12-25T04:34:47.337Z,189.20
2018-12-25T04:35:47.359Z,236.70
2018-12-25T04:36:47.382Z,222.90
2018-12-25T04:37:47.402Z,276.50
2018-12-25T04:38:47.427Z,297.80
2018-12-25T04:39:47.451Z,226.50
2018-12-25T04:40:47.475Z,219.20
2018-12-25T04:41:47.496Z,169.90
2018-12-25T04:42:47.521Z,196.00
2018-12-25T04:43:47.548Z,195.80
2018-12-25T04:44:47.568Z,138.20
2018-12-25T04:45:47.589Z,159.90
2018-12-25T04:46:47.612Z,170.60
2018-12-25T04:47:47.636Z,205.60
2018-12-25T04:48:47.752Z,182.70
2018-12-25T04:49:47.688Z,121.50
2018-12-25T04:50:47.705Z,152.10
2018-12-25T04:51:47.729Z,123.30
2018-12-25T04:52:47.752Z,133.60
2018-12-25T04:53:47.773Z,79.80
2018-12-25T04:54:47.803Z,74.80
2018-12-25T04:55:47.824Z,54.90
2018-12-25T04:56:47.844Z,118.60
2018-12-25T04:57:47.867Z,141.20
2018-12-25T04:58:47.891Z,102.30
2018-12-25T04:59:47.914Z,159.90
2018-12-25T05:00:47.939Z,155.00
2018-12-25T05:01:47.960Z,174.60
2018-12-25T05:02:47.983Z,183.80
2018-12-25T05:03:48.006Z,118.80
2018-12-25T05:04:48.030Z,84.70
2018-12-25T05:05:48.053Z,160.60
2018-12-25T05:06:48.076Z,149.60
2018-12-25T05:07:48.099Z,146.50
2018-12-25T05:08:48.128Z,160.90
2018-12-25T05:09:48.146Z,165.00
2018-12-25T05:10:48.169Z,189.90
2018-12-25T05:11:48.192Z,231.30
2018-12-25T05:12:48.215Z,222.50
2018-12-25T05:13:48.236Z,171.00
2018-12-25T05:14:48.261Z,176.60
2018-12-25T05:15:48.285Z,168.40
2018-12-25T05:16:48.308Z,174.10
2018-12-25T05:17:48.330Z,137.80
2018-12-25T05:18:48.354Z,202.40
2018-12-25T05:19:48.377Z,154.40
2018-12-25T05:20:48.401Z,207.00
2018-12-25T05:21:48.422Z,159.10
2018-12-25T05:22:48.447Z,173.00
2018-12-25T05:23:48.470Z,174.10
2018-12-25T05:24:48.493Z,173.40
2018-12-25T05:25:48.515Z,200.00
2018-12-25T05:26:48.539Z,239.60
2018-12-25T05:27:48.562Z,208.60
2018-12-25T05:28:48.585Z,163.50
2018-12-25T05:29:50.720Z,233.10
2018-12-25T05:30:48.631Z,153.90
2018-12-25T05:31:48.654Z,203.50
2018-12-25T05:32:48.678Z,236.30
2018-12-25T05:33:48.700Z,304.90
2018-12-25T05:34:48.723Z,290.50
2018-12-25T05:35:48.747Z,229.70
2018-12-25T05:36:48.772Z,368.60
2018-12-25T05:37:48.793Z,351.70
2018-12-25T05:38:48.818Z,341.40
2018-12-25T05:39:48.840Z,309.60
2018-12-25T05:40:48.863Z,313.30
2018-12-25T05:41:48.885Z,387.20
2018-12-25T05:42:48.909Z,254.40
2018-12-25T05:43:48.934Z,200.70
2018-12-25T05:44:48.956Z,329.70
2018-12-25T05:45:48.979Z,233.80
2018-12-25T05:46:49.002Z,264.10
2018-12-25T05:47:49.025Z,188.70
2018-12-25T05:48:49.048Z,344.60
2018-12-25T05:49:49.071Z,334.50
2018-12-25T05:50:49.094Z,288.20
2018-12-25T05:51:49.206Z,255.90
2018-12-25T05:52:49.142Z,290.80
2018-12-25T05:53:49.165Z,245.70
2018-12-25T05:54:49.190Z,327.60
2018-12-25T05:55:49.211Z,319.20
2018-12-25T05:56:49.237Z,290.30
2018-12-25T05:57:49.257Z,310.60
2018-12-25T05:58:49.532Z,351.10
2018-12-25T05:59:49.303Z,305.00
2018-12-25T06:00:49.327Z,298.40
2018-12-25T06:01:49.350Z,245.40
2018-12-25T06:02:49.373Z,220.40
2018-12-25T06:03:49.396Z,184.60
2018-12-25T06:04:49.421Z,208.90
2018-12-25T06:05:49.443Z,221.90
2018-12-25T06:06:49.464Z,238.30
2018-12-25T06:07:49.533Z,180.50
2018-12-25T06:08:49.511Z,204.90
2018-12-25T06:09:49.533Z,232.50
2018-12-25T06:10:49.558Z,257.40
2018-12-25T06:11:49.581Z,288.90
2018-12-25T06:12:49.604Z,238.70
2018-12-25T06:13:49.625Z,162.80
2018-12-25T06:14:49.649Z,148.20
2018-12-25T06:15:49.674Z,196.10
2018-12-25T06:16:49.696Z,266.80
2018-12-25T06:17:49.718Z,215.20
2018-12-25T06:18:49.741Z,174.50
2018-12-25T06:19:49.764Z,209.60
2018-12-25T06:20:55.075Z,324.20
2018-12-25T06:21:49.810Z,335.20
2018-12-25T06:22:49.833Z,324.50
2018-12-25T06:23:49.858Z,303.40
2018-12-25T06:24:49.881Z,246.30
2018-12-25T06:25:49.902Z,277.00
2018-12-25T06:26:49.926Z,355.30
2018-12-25T06:27:49.952Z,241.00
2018-12-25T06:28:49.972Z,162.90
2018-12-25T06:29:49.993Z,322.00
2018-12-25T06:30:50.018Z,144.90
2018-12-25T06:31:50.042Z,235.30
2018-12-25T06:32:50.065Z,206.50
2018-12-25T06:33:50.084Z,202.80
2018-12-25T06:34:50.110Z,255.30
2018-12-25T06:35:50.132Z,226.30
2018-12-25T06:36:50.157Z,238.00
2018-12-25T06:37:50.176Z,254.40
2018-12-25T06:38:50.201Z,193.20
2018-12-25T06:39:50.224Z,230.10
2018-12-25T06:40:50.247Z,210.70
2018-12-25T06:41:50.268Z,254.80
2018-12-25T06:42:50.292Z,233.90
2018-12-25T06:43:50.315Z,190.40
2018-12-25T06:44:50.340Z,205.90
2018-12-25T06:45:50.361Z,201.90
2018-12-25T06:46:50.383Z,289.10
2018-12-25T06:47:50.408Z,253.10
2018-12-25T06:48:50.431Z,274.50
2018-12-25T06:49:50.453Z,214.50
2018-12-25T06:50:50.477Z,149.90
2018-12-25T06:51:50.499Z,187.00
2018-12-25T06:52:50.522Z,251.90
2018-12-25T06:53:50.545Z,188.10
2018-12-25T06:54:50.568Z,235.30
2018-12-25T06:55:50.590Z,235.00
2018-12-25T06:56:50.613Z,213.90
2018-12-25T06:57:50.636Z,227.70
2018-12-25T06:58:50.660Z,282.10
2018-12-25T06:59:50.682Z,285.00
2018-12-25T07:00:50.705Z,230.00
2018-12-25T07:01:50.728Z,248.50
2018-12-25T07:02:50.751Z,285.00
2018-12-25T07:03:50.774Z,242.60
2018-12-25T07:04:50.797Z,238.10
2018-12-25T07:05:50.819Z,222.40
2018-12-25T07:06:50.842Z,232.90
2018-12-25T07:07:50.865Z,133.40
2018-12-25T07:08:50.892Z,177.80
2018-12-25T07:09:50.911Z,323.70
2018-12-25T07:10:50.935Z,289.30
2018-12-25T07:11:50.956Z,194.80
2018-12-25T07:12:50.980Z,138.20
2018-12-25T07:13:51.002Z,199.00
2018-12-25T07:14:51.024Z,172.30
2018-12-25T07:15:51.047Z,182.10
2018-12-25T07:16:51.071Z,819.50
2018-12-25T07:17:51.093Z,269.40
2018-12-25T07:18:51.114Z,136.30
2018-12-25T07:19:51.138Z,199.80
2018-12-25T07:20:51.163Z,161.10
2018-12-25T07:21:51.185Z,356.70
2018-12-25T07:22:51.206Z,231.70
2018-12-25T07:23:51.230Z,202.40
2018-12-25T07:24:51.254Z,223.70
2018-12-25T07:25:51.726Z,142.20
2018-12-25T07:26:51.297Z,165.00
2018-12-25T07:27:51.318Z,193.00
2018-12-25T07:28:51.343Z,201.30
2018-12-25T07:29:51.365Z,221.60
2018-12-25T07:30:51.389Z,204.10
2018-12-25T07:31:51.411Z,143.10
2018-12-25T07:32:51.434Z,167.70
2018-12-25T07:33:51.460Z,158.00
2018-12-25T07:34:51.479Z,150.10
2018-12-25T07:35:51.503Z,172.90
2018-12-25T07:36:51.525Z,112.90
2018-12-25T07:37:51.546Z,115.10
2018-12-25T07:38:51.572Z,121.00
2018-12-25T07:39:51.597Z,122.80
2018-12-25T07:40:51.616Z,153.80
2018-12-25T07:41:51.641Z,164.90
2018-12-25T07:42:51.661Z,82.80
2018-12-25T07:43:51.684Z,132.90
2018-12-25T07:44:51.708Z,145.30
2018-12-25T07:45:51.730Z,115.10
2018-12-25T07:46:51.752Z,139.30
2018-12-25T07:47:51.776Z,137.80
2018-12-25T07:48:51.801Z,226.70
2018-12-25T07:49:51.822Z,161.70
2018-12-25T07:50:51.845Z,253.50
2018-12-25T07:51:51.870Z,196.90
2018-12-25T07:52:51.891Z,177.40
2018-12-25T07:53:51.916Z,218.50
2018-12-25T07:54:51.935Z,187.00
2018-12-25T07:55:51.959Z,238.40
2018-12-25T07:56:51.983Z,187.30
2018-12-25T07:57:52.004Z,120.90
2018-12-25T07:58:52.027Z,251.80
2018-12-25T07:59:52.050Z,246.70
2018-12-25T08:00:52.074Z,194.20
2018-12-25T08:01:52.095Z,220.60
2018-12-25T08:02:52.117Z,266.90
2018-12-25T08:03:52.141Z,272.80
2018-12-25T08:04:52.165Z,176.00
2018-12-25T08:05:53.483Z,185.10
2018-12-25T08:06:52.213Z,182.30
2018-12-25T08:07:52.231Z,243.30
2018-12-25T08:08:52.256Z,287.90
2018-12-25T08:09:52.277Z,380.90
2018-12-25T08:10:52.302Z,286.60
2018-12-25T08:11:52.374Z,181.10
2018-12-25T08:12:52.397Z,179.70
2018-12-25T08:13:52.368Z,268.50
2018-12-25T08:14:52.390Z,263.30
2018-12-25T08:15:52.415Z,105.50
2018-12-25T08:16:52.437Z,73.50
2018-12-25T08:17:52.459Z,86.30
2018-12-25T08:18:52.481Z,107.70
2018-12-25T08:19:52.504Z,108.70
2018-12-25T08:20:52.528Z,132.00
2018-12-25T08:21:52.550Z,152.70
2018-12-25T08:22:52.571Z,88.10
2018-12-25T08:23:52.601Z,109.20
2018-12-25T08:24:52.620Z,114.30
2018-12-25T08:25:52.640Z,115.30
2018-12-25T08:26:52.663Z,153.90
2018-12-25T08:27:52.688Z,117.70
2018-12-25T08:28:52.709Z,187.70
2018-12-25T08:29:52.732Z,194.10
2018-12-25T08:30:52.755Z,172.90
2018-12-25T08:31:52.778Z,202.30
2018-12-25T08:32:52.801Z,189.10
2018-12-25T08:33:52.822Z,106.40
2018-12-25T08:34:52.846Z,87.00
2018-12-25T08:35:52.869Z,59.50
2018-12-25T08:36:52.892Z,108.70
2018-12-25T08:37:52.915Z,54.20
2018-12-25T08:38:52.938Z,59.40
2018-12-25T08:39:52.964Z,71.70
2018-12-25T08:40:52.985Z,44.10
2018-12-25T08:41:53.008Z,44.30
2018-12-25T08:42:53.032Z,48.00
2018-12-25T08:43:53.056Z,28.60
2018-12-25T08:44:53.078Z,35.40
2018-12-25T08:45:53.104Z,39.40
2018-12-25T08:46:53.125Z,76.00
2018-12-25T08:47:53.150Z,38.30
2018-12-25T08:48:53.172Z,57.10
2018-12-25T08:49:53.197Z,129.60
2018-12-25T08:50:53.224Z,80.50
2018-12-25T08:51:53.245Z,83.60
2018-12-25T08:52:53.269Z,130.20
2018-12-25T08:53:53.289Z,90.00
2018-12-25T08:54:53.315Z,94.10
2018-12-25T08:55:53.338Z,97.80
2018-12-25T08:56:53.364Z,103.40
2018-12-25T08:57:54.898Z,149.40
2018-12-25T08:58:53.410Z,114.60
2018-12-25T08:59:53.435Z,150.70
2018-12-25T09:00:53.462Z,159.70
2018-12-25T09:01:53.483Z,114.90
2018-12-25T09:02:53.506Z,131.50
2018-12-25T09:03:53.531Z,131.10
2018-12-25T09:04:53.554Z,148.30
2018-12-25T09:05:53.577Z,113.40
2018-12-25T09:06:53.602Z,195.90
2018-12-25T09:07:53.626Z,83.80
2018-12-25T09:08:53.650Z,126.20
2018-12-25T09:09:53.672Z,144.40
2018-12-25T09:10:53.697Z,122.70
2018-12-25T09:11:53.720Z,175.30
2018-12-25T09:12:53.746Z,135.60
2018-12-25T09:13:53.769Z,125.60
2018-12-25T09:14:53.791Z,122.10
2018-12-25T09:15:53.816Z,122.00
2018-12-25T09:16:53.841Z,176.10
2018-12-25T09:17:53.863Z,162.80
2018-12-25T09:18:53.888Z,98.00
2018-12-25T09:19:56.767Z,113.80
2018-12-25T09:20:53.938Z,109.60
2018-12-25T09:21:53.960Z,119.40
2018-12-25T09:22:53.984Z,104.90
2018-12-25T09:23:54.007Z,120.20
2018-12-25T09:24:54.081Z,131.10
2018-12-25T09:25:54.054Z,71.60
2018-12-25T09:26:54.171Z,67.70
2018-12-25T09:27:54.103Z,50.40
2018-12-25T09:28:54.129Z,72.40
2018-12-25T09:29:54.151Z,121.50
2018-12-25T09:30:54.174Z,63.40
2018-12-25T09:31:54.201Z,100.10
2018-12-25T09:32:54.222Z,146.80
2018-12-25T09:33:54.256Z,201.30
2018-12-25T09:34:54.270Z,170.90
2018-12-25T09:35:54.295Z,87.80
2018-12-25T09:36:54.318Z,113.50
2018-12-25T09:37:54.346Z,100.90
2018-12-25T09:38:54.366Z,95.00
2018-12-25T09:39:54.390Z,99.20
2018-12-25T09:40:56.290Z,83.70
2018-12-25T09:41:54.438Z,98.40
2018-12-25T09:42:54.462Z,58.70
2018-12-25T09:43:54.488Z,51.30
2018-12-25T09:44:54.512Z,70.10
2018-12-25T09:45:54.534Z,80.20
2018-12-25T09:46:54.559Z,73.80
2018-12-25T09:47:54.584Z,72.10
2018-12-25T09:48:54.609Z,80.90
2018-12-25T09:49:54.631Z,79.80
2018-12-25T09:50:54.655Z,127.20
2018-12-25T09:51:54.892Z,83.20
2018-12-25T09:52:54.705Z,118.20
2018-12-25T09:53:54.726Z,140.00
2018-12-25T09:54:54.750Z,68.00
2018-12-25T09:55:54.773Z,106.70
2018-12-25T09:56:54.798Z,120.80
2018-12-25T09:57:54.822Z,117.20
2018-12-25T09:58:54.845Z,87.50
2018-12-25T09:59:54.870Z,107.10
2018-12-25T10:00:54.893Z,142.00
2018-12-25T10:01:54.918Z,122.90
2018-12-25T10:02:54.939Z,111.50
2018-12-25T10:03:54.967Z,142.10
2018-12-25T10:04:56.598Z,113.40
2018-12-25T10:05:55.014Z,138.20
2018-12-25T10:06:55.040Z,169.00
2018-12-25T10:07:55.061Z,147.40
2018-12-25T10:08:55.084Z,135.50
2018-12-25T10:09:55.107Z,116.20
2018-12-25T10:10:55.132Z,78.70
2018-12-25T10:11:55.156Z,113.60
2018-12-25T10:12:55.181Z,87.30
2018-12-25T10:13:55.202Z,95.50
2018-12-25T10:14:55.228Z,98.20
2018-12-25T10:15:55.253Z,93.60
2018-12-25T10:16:55.276Z,113.70
2018-12-25T10:17:55.303Z,68.00
2018-12-25T10:18:55.323Z,129.70
2018-12-25T10:19:55.347Z,133.80
2018-12-25T10:20:55.372Z,129.90
2018-12-25T10:22:02.779Z,120.50
2018-12-25T10:22:55.422Z,93.60
2018-12-25T10:23:55.446Z,148.60
2018-12-25T10:24:55.469Z,74.60
2018-12-25T10:25:56.134Z,103.80
2018-12-25T10:26:55.517Z,126.00
2018-12-25T10:27:55.542Z,90.50
2018-12-25T10:28:55.570Z,124.80
2018-12-25T10:29:55.590Z,102.80
2018-12-25T10:30:55.615Z,90.20
2018-12-25T10:31:55.639Z,119.20
2018-12-25T10:32:55.663Z,138.90
2018-12-25T10:33:55.687Z,131.60
2018-12-25T10:34:55.711Z,133.60
2018-12-25T10:35:55.736Z,155.40
2018-12-25T10:36:55.761Z,125.70
2018-12-25T10:37:55.785Z,135.40
2018-12-25T10:38:55.809Z,148.10
2018-12-25T10:39:55.834Z,127.20
2018-12-25T10:40:55.858Z,148.00
2018-12-25T10:41:55.886Z,135.90
2018-12-25T10:42:55.908Z,128.50
2018-12-25T10:43:55.932Z,99.20
2018-12-25T10:44:55.986Z,90.30
2018-12-25T10:45:55.981Z,74.00
2018-12-25T10:46:56.007Z,68.40
2018-12-25T10:47:56.033Z,185.10
2018-12-25T10:48:56.057Z,95.80
2018-12-25T10:49:56.084Z,49.10
2018-12-25T10:50:56.105Z,121.50
2018-12-25T10:51:56.130Z,44.10
2018-12-25T10:52:56.155Z,69.40
2018-12-25T10:53:56.179Z,95.40
2018-12-25T10:54:56.204Z,120.70
2018-12-25T10:55:56.230Z,148.40
2018-12-25T10:56:56.255Z,104.10
2018-12-25T10:57:56.280Z,104.00
2018-12-25T10:58:56.305Z,61.40
2018-12-25T10:59:56.331Z,77.40
2018-12-25T11:00:56.356Z,51.80
2018-12-25T11:01:56.379Z,59.50
2018-12-25T11:02:56.406Z,36.70
2018-12-25T11:03:56.430Z,46.00
2018-12-25T11:04:56.457Z,38.70
2018-12-25T11:05:56.480Z,48.20
2018-12-25T11:06:56.507Z,72.30
2018-12-25T11:07:56.532Z,48.90
2018-12-25T11:08:56.557Z,31.20
2018-12-25T11:09:56.582Z,38.30
2018-12-25T11:10:56.606Z,36.30
2018-12-25T11:11:56.636Z,48.30
2018-12-25T11:12:56.658Z,53.40
2018-12-25T11:13:56.683Z,59.70
2018-12-25T11:14:56.710Z,45.00
2018-12-25T11:15:56.733Z,50.80
2018-12-25T11:16:56.762Z,223.90
2018-12-25T11:17:56.789Z,338.70
2018-12-25T11:18:56.809Z,151.20
2018-12-25T11:19:56.836Z,108.90
2018-12-25T11:20:56.860Z,77.60
2018-12-25T11:21:56.886Z,65.70
2018-12-25T11:22:56.910Z,43.30
2018-12-25T11:23:56.935Z,54.10
2018-12-25T11:24:56.960Z,70.80
2018-12-25T11:25:56.984Z,56.20
2018-12-25T11:26:57.009Z,49.80
2018-12-25T11:27:57.034Z,75.40
2018-12-25T11:28:57.060Z,63.20
2018-12-25T11:29:57.085Z,63.90
2018-12-25T11:30:57.108Z,100.30
2018-12-25T11:31:57.134Z,97.70
2018-12-25T11:32:57.160Z,45.60
2018-12-25T11:33:57.183Z,53.10
2018-12-25T11:34:57.458Z,63.80
2018-12-25T11:35:57.232Z,47.70
2018-12-25T11:36:57.285Z,57.90
2018-12-25T11:37:57.282Z,49.80
2018-12-25T11:38:57.307Z,49.70
2018-12-25T11:39:57.330Z,78.70
2018-12-25T11:40:57.356Z,56.90
2018-12-25T11:41:57.382Z,82.30
2018-12-25T11:42:57.404Z,65.20
2018-12-25T11:43:57.432Z,83.90
2018-12-25T11:44:57.452Z,95.30
2018-12-25T11:45:57.478Z,79.70
2018-12-25T11:46:57.503Z,79.90
2018-12-25T11:47:57.527Z,77.40
2018-12-25T11:48:57.551Z,95.50
2018-12-25T11:49:57.575Z,102.90
2018-12-25T11:50:57.599Z,94.80
2018-12-25T11:51:57.626Z,81.40
2018-12-25T11:52:57.649Z,103.00
2018-12-25T11:53:57.672Z,93.40
2018-12-25T11:54:57.697Z,101.50
2018-12-25T11:55:57.721Z,78.00
2018-12-25T11:56:57.746Z,158.10
2018-12-25T11:57:57.770Z,88.20
2018-12-25T11:58:57.794Z,70.40
2018-12-25T11:59:57.869Z,58.10
2018-12-25T12:00:57.844Z,79.30
2018-12-25T12:01:57.866Z,96.80
2018-12-25T12:02:57.892Z,78.80
2018-12-25T12:03:57.917Z,65.40
2018-12-25T12:04:57.941Z,67.10
2018-12-25T12:05:57.968Z,91.20
2018-12-25T12:06:58.001Z,92.90
2018-12-25T12:07:58.015Z,48.80
2018-12-25T12:08:58.041Z,83.10
2018-12-25T12:09:58.065Z,63.60
2018-12-25T12:10:58.090Z,118.00
2018-12-25T12:11:58.117Z,49.90
2018-12-25T12:12:58.142Z,122.50
2018-12-25T12:13:58.164Z,124.30
2018-12-25T12:14:58.577Z,75.40
2018-12-25T12:15:58.218Z,73.40
2018-12-25T12:16:58.243Z,65.10
2018-12-25T12:17:58.266Z,66.40
2018-12-25T12:18:58.294Z,66.90
2018-12-25T12:19:58.316Z,46.40
2018-12-25T12:20:58.341Z,62.80
2018-12-25T12:21:58.367Z,63.30
2018-12-25T12:22:58.394Z,63.80
2018-12-25T12:23:58.416Z,61.60
2018-12-25T12:24:58.441Z,69.60
2018-12-25T12:25:58.466Z,61.50
2018-12-25T12:26:58.493Z,73.20
2018-12-25T12:27:58.519Z,68.60
2018-12-25T12:28:58.541Z,85.30
2018-12-25T12:29:58.568Z,110.10
2018-12-25T12:30:58.593Z,118.80
2018-12-25T12:31:58.623Z,111.10
2018-12-25T12:32:58.643Z,86.10
2018-12-25T12:33:58.666Z,111.70
2018-12-25T12:34:58.692Z,108.80
2018-12-25T12:35:58.720Z,94.40
2018-12-25T12:36:58.743Z,111.50
2018-12-25T12:37:58.767Z,104.00
2018-12-25T12:38:58.793Z,117.40
2018-12-25T12:39:58.817Z,104.10
2018-12-25T12:40:58.843Z,94.00